createdAt,value
2019-01-13T00:00:54.527Z,7.83
2019-01-13T00:03:23.076Z,8.57
2019-01-13T00:05:51.621Z,9.27
2019-01-13T00:08:20.158Z,8.00
2019-01-13T00:10:48.657Z,6.23
2019-01-13T00:13:17.301Z,5.60
2019-01-13T00:15:45.902Z,4.27
2019-01-13T00:18:14.402Z,3.47
2019-01-13T00:20:42.902Z,4.27
2019-01-13T00:23:11.445Z,5.73
2019-01-13T00:25:39.995Z,5.70
2019-01-13T00:28:08.599Z,5.97
2019-01-13T00:30:37.109Z,4.97
2019-01-13T00:33:05.689Z,5.93
2019-01-13T00:35:34.173Z,7.03
2019-01-13T00:38:02.698Z,6.73
2019-01-13T00:40:31.301Z,5.97
2019-01-13T00:42:59.843Z,5.67
2019-01-13T00:45:28.428Z,4.83
2019-01-13T00:47:56.958Z,3.40
2019-01-13T00:50:25.440Z,3.07
2019-01-13T00:52:53.928Z,3.10
2019-01-13T00:55:22.539Z,3.57
2019-01-13T00:57:51.032Z,3.70
2019-01-13T01:00:26.692Z,4.50
2019-01-13T01:02:55.583Z,5.30
2019-01-13T01:05:24.194Z,5.33
2019-01-13T01:07:52.719Z,5.43
2019-01-13T01:10:21.238Z,4.50
2019-01-13T01:12:49.795Z,5.23
2019-01-13T01:15:18.467Z,4.50
2019-01-13T01:17:46.962Z,4.33
2019-01-13T01:20:16.601Z,4.10
2019-01-13T01:22:45.111Z,5.23
2019-01-13T01:25:16.022Z,4.47
2019-01-13T01:27:44.542Z,4.60
2019-01-13T01:30:15.249Z,4.90
2019-01-13T01:32:43.757Z,4.60
2019-01-13T01:35:12.299Z,4.80
2019-01-13T01:37:40.778Z,4.50
2019-01-13T01:40:12.677Z,5.77
2019-01-13T01:42:41.168Z,6.10
2019-01-13T01:45:11.443Z,6.50
2019-01-13T01:47:39.977Z,6.50
2019-01-13T01:50:11.156Z,7.30
2019-01-13T01:52:39.629Z,8.03
2019-01-13T01:55:10.539Z,9.23
2019-01-13T01:57:39.058Z,8.00
2019-01-13T02:00:13.414Z,9.40
2019-01-13T02:02:42.038Z,10.07
2019-01-13T02:05:10.697Z,10.03
2019-01-13T02:07:39.235Z,9.60
2019-01-13T02:10:10.683Z,10.03
2019-01-13T02:12:39.214Z,10.80
2019-01-13T02:15:10.907Z,10.67
2019-01-13T02:17:39.482Z,11.30
2019-01-13T02:20:11.037Z,12.00
2019-01-13T02:22:39.607Z,11.73
2019-01-13T02:25:10.614Z,11.77
2019-01-13T02:27:39.164Z,12.23
2019-01-13T02:30:16.286Z,11.63
2019-01-13T02:32:44.783Z,11.33
2019-01-13T02:35:13.374Z,13.33
2019-01-13T02:37:41.902Z,13.33
2019-01-13T02:40:15.222Z,12.77
2019-01-13T02:42:43.718Z,13.40
2019-01-13T02:45:14.631Z,12.10
2019-01-13T02:47:43.128Z,12.00
2019-01-13T02:50:12.536Z,11.97
2019-01-13T02:52:41.124Z,11.73
2019-01-13T02:55:09.830Z,11.97
2019-01-13T02:57:38.453Z,12.03
2019-01-13T03:00:12.852Z,12.67
2019-01-13T03:02:41.364Z,12.80
2019-01-13T03:05:11.069Z,12.10
2019-01-13T03:07:39.611Z,13.13
2019-01-13T03:10:11.402Z,12.17
2019-01-13T03:12:39.929Z,12.30
2019-01-13T03:15:10.725Z,13.23
2019-01-13T03:17:39.219Z,13.67
2019-01-13T03:20:10.203Z,14.53
2019-01-13T03:22:38.699Z,14.60
2019-01-13T03:25:09.542Z,15.03
2019-01-13T03:27:38.086Z,16.17
2019-01-13T03:30:15.105Z,15.77
2019-01-13T03:32:43.639Z,15.40
2019-01-13T03:35:12.133Z,15.90
2019-01-13T03:37:40.628Z,17.60
2019-01-13T03:40:12.490Z,18.30
2019-01-13T03:42:41.096Z,18.07
2019-01-13T03:45:10.396Z,19.17
2019-01-13T03:47:38.913Z,18.47
2019-01-13T03:50:10.440Z,18.00
2019-01-13T03:52:38.921Z,17.63
2019-01-13T03:55:08.188Z,17.80
2019-01-13T03:57:36.704Z,17.00
2019-01-13T04:00:11.493Z,17.63
2019-01-13T04:02:40.017Z,16.73
2019-01-13T04:05:08.493Z,16.23
2019-01-13T04:07:37.194Z,14.97
2019-01-13T04:10:08.499Z,14.40
2019-01-13T04:12:36.987Z,13.27
2019-01-13T04:15:24.929Z,13.77
2019-01-13T04:17:53.423Z,12.57
2019-01-13T04:20:21.943Z,13.63
2019-01-13T04:22:50.434Z,13.20
2019-01-13T04:25:19.023Z,12.97
2019-01-13T04:27:47.513Z,14.30
2019-01-13T04:30:16.123Z,13.97
2019-01-13T04:32:44.645Z,13.83
2019-01-13T04:35:13.295Z,14.57
2019-01-13T04:37:41.817Z,14.50
2019-01-13T04:40:11.182Z,15.23
2019-01-13T04:42:39.723Z,15.27
2019-01-13T04:45:09.519Z,14.30
2019-01-13T04:47:38.078Z,15.00
2019-01-13T04:50:11.926Z,15.17
2019-01-13T04:52:43.524Z,15.10
2019-01-13T04:55:12.015Z,14.10
2019-01-13T04:57:40.550Z,14.70
2019-01-13T05:00:12.258Z,13.60
2019-01-13T05:02:40.749Z,13.60
2019-01-13T05:05:09.292Z,13.87
2019-01-13T05:07:37.779Z,13.67
2019-01-13T05:10:09.418Z,13.03
2019-01-13T05:12:37.916Z,12.07
2019-01-13T05:15:07.119Z,11.73
2019-01-13T05:17:35.638Z,12.67
2019-01-13T05:20:07.047Z,13.30
2019-01-13T05:22:35.572Z,11.40
2019-01-13T05:25:04.960Z,12.13
2019-01-13T05:27:33.469Z,12.30
2019-01-13T05:30:02.032Z,11.40
2019-01-13T05:32:30.552Z,12.10
2019-01-13T05:34:59.053Z,10.77
2019-01-13T05:37:27.549Z,9.90
2019-01-13T05:39:56.059Z,9.83
2019-01-13T05:42:24.543Z,10.00
2019-01-13T05:44:53.069Z,10.30
2019-01-13T05:47:21.586Z,10.20
2019-01-13T05:49:50.134Z,9.73
2019-01-13T05:52:18.710Z,8.17
2019-01-13T05:54:47.273Z,8.20
2019-01-13T05:57:15.794Z,8.37
2019-01-13T05:59:44.289Z,6.87
2019-01-13T06:02:12.796Z,7.73
2019-01-13T06:04:41.317Z,7.67
2019-01-13T06:07:09.842Z,6.93
2019-01-13T06:09:38.335Z,6.17
2019-01-13T06:12:06.894Z,6.03
2019-01-13T06:14:35.407Z,5.80
2019-01-13T06:17:04.016Z,6.47
2019-01-13T06:19:32.508Z,6.43
2019-01-13T06:22:01.024Z,7.43
2019-01-13T06:24:29.515Z,6.87
2019-01-13T06:26:58.038Z,7.20
2019-01-13T06:29:26.540Z,7.50
2019-01-13T06:31:56.428Z,7.20
2019-01-13T06:34:25.123Z,7.33
2019-01-13T06:36:53.651Z,8.00
2019-01-13T06:39:22.159Z,7.27
2019-01-13T06:41:50.827Z,8.93
2019-01-13T06:44:19.330Z,8.10
2019-01-13T06:46:47.830Z,7.33
2019-01-13T06:49:16.533Z,8.30
2019-01-13T06:51:45.029Z,8.10
2019-01-13T06:54:13.510Z,8.27
2019-01-13T06:56:42.173Z,7.13
2019-01-13T06:59:10.661Z,7.00
2019-01-13T07:01:39.195Z,7.17
2019-01-13T07:04:07.828Z,7.50
2019-01-13T07:06:36.495Z,6.47
2019-01-13T07:09:06.679Z,5.90
2019-01-13T07:11:35.197Z,5.90
2019-01-13T07:14:03.698Z,5.70
2019-01-13T07:16:32.194Z,4.43
2019-01-13T07:19:00.722Z,4.03
2019-01-13T07:21:29.214Z,3.97
2019-01-13T07:23:57.842Z,3.47
2019-01-13T07:26:26.329Z,3.40
2019-01-13T07:28:54.847Z,3.70
2019-01-13T07:31:23.334Z,3.27
2019-01-13T07:33:51.854Z,3.53
2019-01-13T07:36:20.367Z,3.67
2019-01-13T07:38:48.863Z,4.27
2019-01-13T07:41:17.444Z,4.43
2019-01-13T07:43:45.985Z,4.30
2019-01-13T07:46:14.499Z,4.20
2019-01-13T07:48:43.007Z,4.07
2019-01-13T07:51:11.537Z,4.03
2019-01-13T07:53:40.049Z,3.90
2019-01-13T07:56:08.539Z,3.57
2019-01-13T07:58:37.047Z,3.00
2019-01-13T08:01:05.748Z,2.90
2019-01-13T08:03:34.278Z,2.80
2019-01-13T08:06:02.837Z,3.00
2019-01-13T08:08:31.372Z,3.50
2019-01-13T08:10:59.878Z,2.33
2019-01-13T08:13:28.381Z,2.50
2019-01-13T08:15:56.895Z,2.80
2019-01-13T08:18:25.392Z,2.07
2019-01-13T08:20:53.908Z,1.60
2019-01-13T08:23:22.401Z,1.13
2019-01-13T08:25:50.904Z,1.30
2019-01-13T08:28:19.424Z,1.30
2019-01-13T08:30:47.905Z,1.73
2019-01-13T08:33:16.433Z,1.40
2019-01-13T08:35:44.942Z,2.00
2019-01-13T08:38:13.512Z,1.77
2019-01-13T08:40:42.073Z,1.63
2019-01-13T08:43:10.585Z,1.70
2019-01-13T08:45:39.088Z,1.53
2019-01-13T08:48:07.597Z,2.60
2019-01-13T08:50:36.174Z,2.20
2019-01-13T08:53:04.679Z,2.13
2019-01-13T08:55:33.210Z,1.60
2019-01-13T08:58:01.823Z,1.53
2019-01-13T09:00:30.635Z,1.53
2019-01-13T09:02:59.263Z,1.67
2019-01-13T09:05:27.770Z,1.87
2019-01-13T09:07:56.289Z,1.70
2019-01-13T09:10:24.774Z,1.77
2019-01-13T09:12:56.831Z,1.67
2019-01-13T09:15:24.830Z,1.80
2019-01-13T09:17:53.354Z,1.43
2019-01-13T09:20:24.347Z,1.70
2019-01-13T09:22:52.873Z,1.60
2019-01-13T09:25:21.409Z,1.70
2019-01-13T09:27:49.984Z,1.83
2019-01-13T09:30:26.149Z,1.90
2019-01-13T09:32:54.749Z,2.03
2019-01-13T09:35:23.334Z,2.10
2019-01-13T09:37:51.838Z,2.07
2019-01-13T09:40:22.559Z,1.70
2019-01-13T09:42:51.055Z,1.50
2019-01-13T09:45:19.588Z,1.50
2019-01-13T09:47:48.146Z,1.53
2019-01-13T09:50:18.443Z,1.50
2019-01-13T09:52:46.988Z,1.57
2019-01-13T09:55:17.073Z,1.77
2019-01-13T09:57:45.612Z,1.53
2019-01-13T10:00:20.120Z,1.60
2019-01-13T10:02:48.647Z,1.50
2019-01-13T10:05:17.140Z,2.00
2019-01-13T10:07:45.670Z,1.90
2019-01-13T10:10:14.249Z,1.73
2019-01-13T10:12:42.758Z,2.10
2019-01-13T10:15:19.936Z,2.13
2019-01-13T10:17:48.535Z,1.83
2019-01-13T10:20:17.067Z,2.03
2019-01-13T10:22:45.568Z,1.87
2019-01-13T10:25:14.147Z,3.17
2019-01-13T10:27:42.694Z,5.97
2019-01-13T10:30:16.959Z,2.03
2019-01-13T10:32:46.749Z,1.87
2019-01-13T10:35:15.723Z,2.40
2019-01-13T10:37:44.323Z,2.03
2019-01-13T10:40:18.093Z,2.20
2019-01-13T10:42:46.713Z,3.50
2019-01-13T10:45:16.799Z,2.73
2019-01-13T10:47:45.381Z,4.20
2019-01-13T10:50:19.849Z,3.10
2019-01-13T10:52:48.319Z,3.40
2019-01-13T10:55:17.574Z,3.10
2019-01-13T10:57:46.122Z,2.80
2019-01-13T11:00:20.349Z,3.10
2019-01-13T11:02:48.853Z,2.80
2019-01-13T11:05:17.434Z,3.57
2019-01-13T11:07:45.905Z,2.67
2019-01-13T11:10:16.210Z,3.23
2019-01-13T11:12:44.708Z,2.73
2019-01-13T11:15:21.477Z,3.07
2019-01-13T11:17:46.224Z,3.60
2019-01-13T11:20:29.433Z,3.07
2019-01-13T11:22:57.934Z,3.10
2019-01-13T11:25:26.418Z,3.23
2019-01-13T11:27:55.035Z,3.50
2019-01-13T11:30:25.472Z,3.40
2019-01-13T11:32:54.110Z,4.90
2019-01-13T11:35:22.793Z,2.93
2019-01-13T11:37:51.302Z,3.20
2019-01-13T11:40:21.859Z,3.57
2019-01-13T11:42:50.410Z,3.33
2019-01-13T11:45:18.914Z,3.40
2019-01-13T11:47:47.430Z,3.53
2019-01-13T11:50:18.404Z,3.53
2019-01-13T11:52:46.949Z,3.63
2019-01-13T11:55:16.819Z,3.20
2019-01-13T11:57:45.310Z,2.67
2019-01-13T12:00:28.644Z,2.23
2019-01-13T12:02:57.184Z,2.63
2019-01-13T12:05:25.690Z,2.93
2019-01-13T12:07:54.188Z,3.00
2019-01-13T12:10:22.761Z,2.63
2019-01-13T12:12:51.315Z,2.97
2019-01-13T12:15:21.018Z,2.60
2019-01-13T12:17:49.535Z,2.40
2019-01-13T12:20:25.354Z,2.80
2019-01-13T12:22:53.855Z,2.93
2019-01-13T12:25:23.273Z,2.77
2019-01-13T12:27:52.094Z,2.50
2019-01-13T12:30:30.926Z,2.70
2019-01-13T12:32:59.725Z,2.17
2019-01-13T12:35:28.326Z,2.40
2019-01-13T12:37:57.051Z,2.97
2019-01-13T12:40:27.861Z,2.13
2019-01-13T12:42:56.374Z,2.17
2019-01-13T12:45:25.188Z,1.90
2019-01-13T12:47:53.797Z,2.00
2019-01-13T12:50:27.679Z,1.60
2019-01-13T12:52:56.213Z,1.80
2019-01-13T12:55:24.806Z,1.80
2019-01-13T12:57:53.365Z,1.60
2019-01-13T13:00:21.894Z,1.60
2019-01-13T13:02:50.424Z,1.73
2019-01-13T13:05:19.018Z,1.73
2019-01-13T13:07:47.522Z,1.53
2019-01-13T13:10:24.874Z,1.80
2019-01-13T13:12:53.471Z,2.17
2019-01-13T13:15:22.075Z,1.60
2019-01-13T13:17:50.603Z,2.17
2019-01-13T13:20:19.083Z,1.77
2019-01-13T13:22:47.601Z,1.67
2019-01-13T13:25:16.190Z,1.93
2019-01-13T13:27:44.825Z,1.73
2019-01-13T13:30:22.219Z,2.20
2019-01-13T13:32:50.714Z,2.57
2019-01-13T13:35:19.478Z,2.53
2019-01-13T13:37:48.035Z,1.80
2019-01-13T13:40:21.877Z,2.30
2019-01-13T13:42:50.545Z,2.40
2019-01-13T13:45:19.108Z,2.20
2019-01-13T13:47:47.625Z,1.80
2019-01-13T13:50:18.513Z,1.93
2019-01-13T13:52:46.998Z,2.60
2019-01-13T13:55:15.524Z,1.70
2019-01-13T13:57:44.084Z,1.53
2019-01-13T14:00:18.265Z,1.57
2019-01-13T14:02:46.736Z,2.50
2019-01-13T14:05:15.239Z,1.90
2019-01-13T14:07:43.733Z,1.73
2019-01-13T14:10:17.857Z,2.43
2019-01-13T14:12:46.392Z,1.90
2019-01-13T14:15:14.911Z,1.70
2019-01-13T14:17:43.658Z,1.60
2019-01-13T14:20:19.286Z,1.90
2019-01-13T14:22:47.844Z,2.03
2019-01-13T14:25:16.349Z,3.07
2019-01-13T14:27:44.881Z,2.10
2019-01-13T14:30:16.265Z,1.80
2019-01-13T14:32:44.834Z,2.00
2019-01-13T14:35:13.447Z,2.10
2019-01-13T14:37:42.062Z,2.60
2019-01-13T14:40:15.804Z,2.33
2019-01-13T14:42:44.407Z,2.90
2019-01-13T14:45:15.234Z,2.10
2019-01-13T14:47:43.743Z,2.90
2019-01-13T14:50:20.890Z,3.30
2019-01-13T14:52:49.610Z,3.20
2019-01-13T14:55:18.172Z,1.83
2019-01-13T14:57:46.664Z,2.10
2019-01-13T15:00:20.500Z,3.33
2019-01-13T15:02:49.108Z,3.60
2019-01-13T15:05:17.667Z,2.40
2019-01-13T15:07:46.296Z,2.30
2019-01-13T15:10:16.802Z,2.47
2019-01-13T15:12:45.306Z,1.73
2019-01-13T15:15:15.048Z,1.83
2019-01-13T15:17:43.554Z,2.13
2019-01-13T15:20:18.085Z,2.10
2019-01-13T15:22:46.641Z,2.27
2019-01-13T15:25:17.491Z,2.00
2019-01-13T15:27:46.050Z,1.83
2019-01-13T15:30:20.164Z,1.90
2019-01-13T15:32:48.835Z,2.00
2019-01-13T15:35:17.484Z,1.80
2019-01-13T15:37:45.974Z,1.70
2019-01-13T15:40:17.582Z,1.93
2019-01-13T15:42:46.154Z,1.77
2019-01-13T15:45:15.450Z,2.17
2019-01-13T15:47:43.955Z,1.90
2019-01-13T15:50:17.907Z,1.80
2019-01-13T15:52:46.524Z,2.07
2019-01-13T15:55:15.085Z,1.93
2019-01-13T15:57:43.615Z,1.80
2019-01-13T16:00:17.315Z,1.90
2019-01-13T16:02:45.901Z,1.60
2019-01-13T16:05:14.618Z,1.80
2019-01-13T16:07:43.229Z,2.03
2019-01-13T16:10:16.743Z,1.87
2019-01-13T16:12:45.300Z,1.90
2019-01-13T16:15:13.833Z,1.30
2019-01-13T16:17:42.339Z,1.40
2019-01-13T16:20:22.866Z,1.87
2019-01-13T16:22:51.354Z,1.23
2019-01-13T16:25:19.990Z,1.80
2019-01-13T16:27:48.523Z,2.83
2019-01-13T16:30:23.005Z,2.60
2019-01-13T16:32:51.636Z,2.53
2019-01-13T16:35:20.122Z,2.90
2019-01-13T16:37:48.653Z,2.93
2019-01-13T16:40:18.883Z,3.40
2019-01-13T16:42:47.523Z,3.70
2019-01-13T16:45:16.775Z,4.13
2019-01-13T16:47:45.342Z,4.40
2019-01-13T16:50:16.234Z,4.50
2019-01-13T16:52:45.513Z,4.67
2019-01-13T16:55:14.034Z,4.90
2019-01-13T16:57:42.570Z,5.40
2019-01-13T17:00:16.628Z,5.40
2019-01-13T17:02:45.211Z,5.20
2019-01-13T17:05:15.741Z,4.63
2019-01-13T17:07:44.265Z,5.50
2019-01-13T17:10:20.496Z,6.60
2019-01-13T17:12:49.101Z,7.03
2019-01-13T17:15:23.434Z,5.50
2019-01-13T17:17:51.940Z,5.90
2019-01-13T17:20:22.030Z,6.33
2019-01-13T17:22:50.605Z,6.47
2019-01-13T17:25:26.418Z,6.80
2019-01-13T17:27:54.950Z,8.10
2019-01-13T17:30:28.645Z,7.27
2019-01-13T17:32:57.217Z,6.30
2019-01-13T17:35:25.744Z,5.20
2019-01-13T17:37:54.335Z,6.30
2019-01-13T17:40:24.195Z,5.40
2019-01-13T17:42:53.298Z,6.13
2019-01-13T17:45:24.080Z,7.17
2019-01-13T17:47:52.725Z,7.43
2019-01-13T17:50:22.726Z,6.70
2019-01-13T17:52:51.222Z,6.43
2019-01-13T17:55:21.475Z,7.17
2019-01-13T17:57:50.048Z,6.50
2019-01-13T18:00:24.573Z,6.77
2019-01-13T18:02:53.144Z,7.83
2019-01-13T18:05:21.669Z,7.40
2019-01-13T18:07:50.245Z,7.20
2019-01-13T18:10:18.800Z,4.27
2019-01-13T18:12:47.320Z,3.60
2019-01-13T18:15:15.882Z,3.53
2019-01-13T18:17:44.386Z,3.07
2019-01-13T18:20:21.257Z,3.23
2019-01-13T18:22:49.751Z,1.30
2019-01-13T18:25:18.301Z,2.67
2019-01-13T18:27:46.972Z,2.33
2019-01-13T18:30:26.447Z,1.90
2019-01-13T18:32:55.022Z,1.60
2019-01-13T18:35:23.850Z,1.57
2019-01-13T18:37:52.350Z,2.20
2019-01-13T18:40:24.711Z,2.50
2019-01-13T18:42:53.225Z,2.70
2019-01-13T18:45:21.787Z,2.90
2019-01-13T18:47:50.288Z,3.37
2019-01-13T18:50:20.292Z,2.73
2019-01-13T18:52:57.711Z,3.53
2019-01-13T18:55:26.245Z,3.20
2019-01-13T18:57:54.776Z,3.33
2019-01-13T19:00:24.473Z,2.93
2019-01-13T19:02:53.060Z,2.60
2019-01-13T19:05:23.861Z,2.43
2019-01-13T19:07:52.422Z,2.17
2019-01-13T19:10:27.122Z,2.70
2019-01-13T19:12:58.744Z,2.90
2019-01-13T19:15:27.316Z,3.23
2019-01-13T19:17:57.585Z,2.00
2019-01-13T19:20:26.294Z,2.43
2019-01-13T19:22:54.776Z,2.20
2019-01-13T19:25:23.431Z,2.60
2019-01-13T19:27:52.039Z,2.90
2019-01-13T19:30:20.575Z,1.90
2019-01-13T19:32:49.341Z,2.00
2019-01-13T19:35:18.046Z,2.23
2019-01-13T19:37:47.547Z,2.07
2019-01-13T19:40:17.527Z,2.70
2019-01-13T19:42:46.147Z,2.13
2019-01-13T19:45:19.496Z,2.10
2019-01-13T19:47:48.115Z,2.43
2019-01-13T19:50:21.631Z,2.13
2019-01-13T19:52:50.183Z,2.63
2019-01-13T19:55:18.752Z,2.07
2019-01-13T19:57:47.269Z,1.90
2019-01-13T20:00:24.245Z,2.13
2019-01-13T20:02:52.788Z,2.33
2019-01-13T20:05:22.593Z,2.33
2019-01-13T20:07:51.272Z,1.87
2019-01-13T20:10:19.898Z,3.00
2019-01-13T20:12:48.376Z,1.73
2019-01-13T20:15:21.459Z,2.13
2019-01-13T20:17:50.049Z,2.13
2019-01-13T20:20:19.562Z,2.80
2019-01-13T20:22:48.226Z,2.50
2019-01-13T20:25:17.866Z,2.57
2019-01-13T20:27:46.427Z,2.37
2019-01-13T20:30:23.824Z,2.97
2019-01-13T20:32:52.376Z,2.20
2019-01-13T20:35:20.865Z,2.70
2019-01-13T20:37:49.410Z,2.20
2019-01-13T20:40:18.001Z,1.90
2019-01-13T20:42:46.539Z,2.00
2019-01-13T20:45:27.075Z,2.73
2019-01-13T20:47:55.654Z,2.77
2019-01-13T20:50:24.140Z,2.47
2019-01-13T20:52:52.665Z,2.33
2019-01-13T20:55:21.263Z,2.30
2019-01-13T20:57:49.815Z,1.93
2019-01-13T21:00:20.996Z,2.10
2019-01-13T21:02:49.519Z,2.10
2019-01-13T21:05:18.094Z,1.90
2019-01-13T21:07:46.699Z,2.43
2019-01-13T21:10:17.013Z,2.57
2019-01-13T21:12:45.665Z,1.93
2019-01-13T21:15:17.360Z,2.73
2019-01-13T21:17:45.921Z,2.67
2019-01-13T21:20:14.453Z,2.00
2019-01-13T21:22:43.059Z,2.20
2019-01-13T21:25:18.760Z,2.40
2019-01-13T21:27:44.981Z,2.80
2019-01-13T21:30:28.555Z,2.17
2019-01-13T21:32:57.056Z,2.43
2019-01-13T21:35:25.758Z,2.80
2019-01-13T21:37:54.251Z,2.67
2019-01-13T21:40:22.785Z,2.43
2019-01-13T21:42:51.352Z,2.07
2019-01-13T21:45:23.816Z,2.37
2019-01-13T21:47:52.310Z,1.60
2019-01-13T21:50:22.741Z,2.17
2019-01-13T21:52:51.361Z,2.40
2019-01-13T21:55:19.981Z,2.20
2019-01-13T21:57:48.565Z,1.90
2019-01-13T22:00:19.876Z,2.33
2019-01-13T22:02:48.465Z,2.47
2019-01-13T22:05:17.025Z,1.70
2019-01-13T22:07:45.650Z,2.73
2019-01-13T22:10:16.316Z,2.03
2019-01-13T22:12:44.917Z,1.17
2019-01-13T22:15:16.337Z,1.17
2019-01-13T22:17:44.910Z,1.20
2019-01-13T22:20:15.561Z,1.10
2019-01-13T22:22:44.071Z,1.00
2019-01-13T22:25:13.091Z,1.23
2019-01-13T22:27:41.850Z,1.60
2019-01-13T22:30:15.429Z,1.33
2019-01-13T22:32:44.145Z,1.77
2019-01-13T22:35:12.679Z,1.97
2019-01-13T22:37:41.200Z,2.33
2019-01-13T22:40:11.822Z,2.00
2019-01-13T22:42:40.396Z,2.30
2019-01-13T22:45:11.207Z,1.87
2019-01-13T22:47:39.715Z,2.20
2019-01-13T22:50:10.676Z,1.97
2019-01-13T22:52:39.236Z,2.67
2019-01-13T22:55:08.761Z,1.80
2019-01-13T22:57:37.285Z,2.23
2019-01-13T23:00:22.426Z,2.57
2019-01-13T23:02:50.945Z,2.17
2019-01-13T23:05:19.434Z,2.73
2019-01-13T23:07:47.940Z,2.20
2019-01-13T23:10:16.441Z,1.87
2019-01-13T23:12:45.111Z,2.80
2019-01-13T23:15:13.590Z,1.93
2019-01-13T23:17:42.145Z,1.90
2019-01-13T23:20:10.748Z,2.67
2019-01-13T23:22:39.290Z,1.77
2019-01-13T23:25:07.806Z,2.27
2019-01-13T23:27:36.305Z,2.03
2019-01-13T23:30:07.175Z,2.40
2019-01-13T23:32:35.715Z,1.83
2019-01-13T23:35:04.726Z,2.00
2019-01-13T23:37:33.334Z,2.37
2019-01-13T23:40:01.835Z,2.20
2019-01-13T23:42:34.570Z,2.73
2019-01-13T23:45:03.170Z,2.37
2019-01-13T23:47:31.666Z,2.50
2019-01-13T23:50:00.341Z,2.77
2019-01-13T23:52:28.864Z,2.90
2019-01-13T23:54:57.340Z,2.50
2019-01-13T23:57:25.913Z,2.10
2019-01-13T23:59:54.516Z,2.77
